Time;durP1;ratioP1;P1;durP2;ratioP2;P2;SDS_P1;SDS_P2;PMS_P1;PMS_P2;Temp;Humidity;BMP_temperature;BMP_pressure;BME280_temperature;BME280_humidity;BME280_pressure;Samples;Min_cycle;Max_cycle;Signal;HPM_P1;HPM_P2
2022/07/06 00:06:05;;;;;;;10.38;5.47;;;18.80;99.90;;;;;;5335243;25;20065;-83
2022/07/06 00:40:25;;;;;;;10.85;5.78;;;18.60;99.90;;;;;;4770477;25;20116;-83
2022/07/06 00:45:51;;;;;;;14.23;5.57;;;18.60;99.90;;;;;;5191811;25;20062;-84
2022/07/06 00:48:57;;;;;;;13.95;6.07;;;19.90;99.90;;;;;;4669370;30;20034;-83
2022/07/06 00:56:35;;;;;;;13.27;6.80;;;18.70;99.90;;;;;;4566812;25;20149;-86
2022/07/06 00:59:02;;;;;;;11.75;7.03;;;18.70;99.90;;;;;;4667637;30;20590;-84
2022/07/06 01:09:29;;;;;;;11.52;6.55;;;18.50;99.90;;;;;;5052129;25;20743;-83
2022/07/06 01:11:55;;;;;;;14.93;6.37;;;18.50;99.90;;;;;;4651928;30;20045;-82
2022/07/06 01:14:21;;;;;;;10.82;6.20;;;18.60;99.90;;;;;;4652302;30;20688;-84
2022/07/06 01:16:48;;;;;;;12.23;5.82;;;18.60;99.90;;;;;;4665994;30;20533;-83
2022/07/06 01:43:07;;;;;;;14.60;6.50;;;19.30;99.90;;;;;;4668008;30;20354;-85
2022/07/06 01:59:11;;;;;;;9.73;6.00;;;18.40;99.90;;;;;;4667637;30;20677;-83
2022/07/06 02:47:59;;;;;;;17.42;5.90;;;18.30;99.90;;;;;;5368605;25;20101;-84
2022/07/06 02:54:50;;;;;;;14.38;6.95;;;18.40;99.90;;;;;;4936164;25;20054;-83
2022/07/06 03:10:06;;;;;;;11.07;4.80;;;17.60;99.90;;;;;;4653059;30;20459;-84
2022/07/06 03:14:06;;;;;;;;;;;;;;;;;;;;;
2022/07/06 03:21:15;;;;;;;;;;;20.70;99.90;;;;;;4599082;31;20044;-85
2022/07/06 04:30:14;;;;;;;16.45;7.20;;;17.80;99.90;;;;;;4598813;25;20076;-84
2022/07/06 04:33:32;;;;;;;16.23;7.95;;;17.80;99.90;;;;;;4648716;30;20134;-83
2022/07/06 04:36:19;;;;;;;14.05;6.85;;;18.30;99.90;;;;;;4652633;30;20041;-83
2022/07/06 04:39:35;;;;;;;13.85;7.28;;;18.40;99.90;;;;;;4667864;30;20136;-83
2022/07/06 04:42:47;;;;;;;17.85;7.65;;;17.90;99.90;;;;;;4652657;30;20538;-83
2022/07/06 04:45:56;;;;;;;21.20;8.18;;;17.90;99.90;;;;;;4668114;30;20037;-82
2022/07/06 04:56:01;;;;;;;23.80;10.40;;;17.90;99.90;;;;;;5024220;25;20339;-84
2022/07/06 04:58:42;;;;;;;27.00;11.55;;;18.20;99.90;;;;;;4651937;30;20037;-83
2022/07/06 05:04:02;;;;;;;20.20;9.70;;;17.80;99.90;;;;;;5025374;24;19931;-81
2022/07/06 05:06:47;;;;;;;23.63;11.07;;;17.90;99.90;;;;;;4664506;30;20117;-81
2022/07/06 05:11:58;;;;;;;20.90;10.07;;;17.90;99.90;;;;;;4671116;25;20061;-82
2022/07/06 05:35:16;;;;;;;20.95;11.75;;;17.90;99.90;;;;;;3044869;25;20066;-83
2022/07/06 06:09:22;;;;;;;26.25;9.95;;;18.40;99.90;;;;;;4014918;25;18764871;-84
2022/07/06 06:24:18;;;;;;;21.50;10.43;;;18.90;99.90;;;;;;5208775;25;20050;-83
2022/07/06 06:27:24;;;;;;;21.27;10.40;;;18.40;99.90;;;;;;4666794;30;20027;-83
2022/07/06 06:30:39;;;;;;;19.15;9.20;;;16.90;99.90;;;;;;4651205;30;20224;-85
2022/07/06 06:37:11;;;;;;;24.33;10.13;;;20.90;99.90;;;;;;4667289;30;20163;-85
2022/07/06 06:43:33;;;;;;;22.33;10.02;;;21.50;99.90;;;;;;4667079;30;20053;-85
2022/07/06 06:45:58;;;;;;;21.23;10.23;;;19.10;99.90;;;;;;4650889;30;20513;-83
2022/07/06 06:48:24;;;;;;;23.83;10.77;;;20.00;99.90;;;;;;4883398;25;20069;-85
2022/07/06 06:51:05;;;;;;;21.50;10.40;;;20.00;99.90;;;;;;4666206;30;20053;-83
2022/07/06 06:54:04;;;;;;;22.90;10.13;;;20.10;99.90;;;;;;4666402;30;20294;-82
2022/07/06 06:56:47;;;;;;;20.80;9.93;;;20.30;99.90;;;;;;4728652;25;20350;-84
2022/07/06 06:59:49;;;;;;;21.70;9.13;;;20.60;99.90;;;;;;4647824;30;20133;-83
2022/07/06 07:02:15;;;;;;;17.95;8.88;;;21.50;99.90;;;;;;4649146;30;20507;-86
2022/07/06 07:05:00;;;;;;;19.67;8.85;;;20.00;99.90;;;;;;4649156;30;20539;-81
2022/07/06 07:07:44;;;;;;;19.52;10.00;;;21.40;99.90;;;;;;4648121;30;20137;-84
2022/07/06 07:10:21;;;;;;;17.50;8.88;;;20.40;99.90;;;;;;4649665;30;20023;-82
2022/07/06 07:13:20;;;;;;;16.65;9.88;;;20.50;99.90;;;;;;4629077;30;20078;-83
2022/07/06 07:15:51;;;;;;;18.45;9.95;;;20.10;99.90;;;;;;4629864;30;20278;-86
2022/07/06 07:18:51;;;;;;;15.30;8.27;;;20.80;99.90;;;;;;4706942;25;20066;-84
2022/07/06 07:39:30;;;;;;;20.50;9.93;;;20.80;99.90;;;;;;4686749;30;20052;-86
2022/07/06 07:42:00;;;;;;;19.85;10.20;;;20.60;99.90;;;;;;4668975;30;20046;-84
2022/07/06 08:09:03;;;;;;;22.05;9.18;;;21.60;99.70;;;;;;4640059;28;20059;-82
2022/07/06 08:29:49;;;;;;;15.27;7.20;;;22.00;98.00;;;;;;4749143;25;20109;-83
2022/07/06 08:50:10;;;;;;;16.00;7.93;;;23.80;95.30;;;;;;4647596;30;20047;-81
2022/07/06 08:52:59;;;;;;;20.63;9.15;;;25.00;95.60;;;;;;4633942;30;20119;-84
2022/07/06 09:01:50;;;;;;;17.05;8.05;;;25.50;94.10;;;;;;4631214;30;20742;-82
2022/07/06 09:17:18;;;;;;;16.02;7.97;;;25.20;94.60;;;;;;4646821;30;20062;-82
2022/07/06 09:19:59;;;;;;;14.13;7.43;;;25.30;94.10;;;;;;4618207;30;20408;-83
2022/07/06 09:22:49;;;;;;;14.63;7.20;;;24.30;93.80;;;;;;4618092;30;20047;-81
2022/07/06 09:25:40;;;;;;;13.27;6.90;;;23.60;92.80;;;;;;4617711;30;20226;-84
2022/07/06 10:00:07;;;;;;;16.55;6.15;;;25.60;89.00;;;;;;3632988;25;20066;-84
2022/07/06 10:03:13;;;;;;;12.30;6.95;;;26.70;89.50;;;;;;4631868;30;20062;-83
2022/07/06 10:05:40;;;;;;;15.18;7.13;;;25.50;87.40;;;;;;4633093;30;20134;-82
2022/07/06 10:14:49;;;;;;;13.43;6.40;;;27.00;87.40;;;;;;4684299;30;20529;-82
2022/07/06 10:28:14;;;;;;;10.45;5.80;;;25.50;86.90;;;;;;4633864;28;20656;-85
2022/07/06 10:34:19;;;;;;;13.27;5.68;;;26.30;82.40;;;;;;4595881;31;19992;-83
2022/07/06 10:37:42;;;;;;;;;;;;;;;;;;;;;
2022/07/06 10:44:29;;;;;;;;;;;;;;;;;;;;;
2022/07/06 10:47:47;;;;;;;9.05;4.80;;;28.40;79.90;;;;;;4596112;31;20589;-84
2022/07/06 11:04:43;;;;;;;11.15;5.38;;;28.90;73.20;;;;;;4566354;31;20576;-81
2022/07/06 11:14:40;;;;;;;11.35;5.07;;;29.40;69.60;;;;;;4566474;31;20065;-82
2022/07/06 11:20:20;;;;;;;9.88;4.38;;;29.70;63.70;;;;;;4855131;25;20066;-82
2022/07/06 12:00:32;;;;;;;8.68;3.90;;;34.50;54.00;;;;;;4669705;30;20053;-81
2022/07/06 12:05:47;;;;;;;10.27;3.95;;;33.40;50.60;;;;;;5276976;25;20057;-85
2022/07/06 12:09:06;;;;;;;;;;;;;;;;;;;;;
2022/07/06 12:12:11;;;;;;;8.15;3.42;;;34.90;50.00;;;;;;4725723;25;20062;-83
2022/07/06 12:15:30;;;;;;;7.13;2.97;;;33.70;46.90;;;;;;4669398;30;20055;-82
2022/07/06 12:30:25;;;;;;;3.67;1.90;;;33.20;41.00;;;;;;4686615;30;20052;-82
2022/07/06 12:56:29;;;;;;;3.33;1.60;;;36.20;40.00;;;;;;4647701;30;20079;-84
2022/07/06 12:59:23;;;;;;;4.05;1.40;;;36.90;38.80;;;;;;4743409;25;20058;-83
2022/07/06 13:05:50;;;;;;;2.35;1.23;;;35.50;38.40;;;;;;4668572;30;20480;-82
2022/07/06 13:08:37;;;;;;;2.13;1.30;;;35.70;39.80;;;;;;4668657;30;20848;-82
2022/07/06 13:11:50;;;;;;;3.70;1.70;;;36.70;39.40;;;;;;4648366;30;20071;-83
2022/07/06 14:34:18;;;;;;;3.17;1.60;;;36.00;37.70;;;;;;4785836;25;20054;-82
2022/07/06 14:37:38;;;;;;;;;;;;;;;;;;;;;
2022/07/06 14:43:33;;;;;;;2.92;1.50;;;37.70;39.90;;;;;;4617605;30;20126;-83
2022/07/06 14:46:51;;;;;;;2.75;1.40;;;36.00;40.00;;;;;;4599375;31;20143;-86
2022/07/06 14:52:17;;;;;;;1.55;1.30;;;35.20;39.00;;;;;;4806350;25;20078;-82
2022/07/06 14:57:32;;;;;;;3.53;1.52;;;35.60;38.10;;;;;;5244599;25;20062;-81
2022/07/06 15:00:17;;;;;;;3.78;1.60;;;35.00;38.00;;;;;;4670300;30;20554;-85
2022/07/06 15:02:55;;;;;;;2.20;1.30;;;35.60;41.40;;;;;;4670413;30;20038;-82
2022/07/06 15:28:46;;;;;;;1.77;1.38;;;36.80;36.70;;;;;;4686350;25;20348;-83
2022/07/06 15:35:05;;;;;;;2.78;1.52;;;37.30;37.80;;;;;;4723463;25;20264;-81
2022/07/06 15:41:03;;;;;;;2.83;1.70;;;37.00;37.90;;;;;;5271289;25;20422;-85
2022/07/06 15:46:30;;;;;;;2.33;1.52;;;36.90;36.30;;;;;;4679306;25;20315;-81
2022/07/06 15:49:10;;;;;;;2.70;1.45;;;37.30;40.00;;;;;;4653408;30;20038;-83
2022/07/06 15:54:46;;;;;;;3.42;1.65;;;38.60;37.70;;;;;;4675203;25;20070;-82
2022/07/06 15:57:12;;;;;;;3.28;1.40;;;38.70;37.90;;;;;;4669880;30;20030;-82
2022/07/06 15:59:56;;;;;;;2.83;1.40;;;38.30;36.60;;;;;;4669420;30;20060;-80
2022/07/06 16:02:26;;;;;;;2.30;1.33;;;38.40;36.80;;;;;;4669460;30;20034;-82
2022/07/06 16:05:36;;;;;;;2.28;1.23;;;38.70;37.90;;;;;;4654127;30;20176;-83
2022/07/06 16:08:14;;;;;;;1.83;1.20;;;39.50;36.10;;;;;;4669118;30;20463;-82
2022/07/06 16:14:02;;;;;;;3.05;1.50;;;37.80;36.10;;;;;;5130494;25;20360;-81
2022/07/06 16:16:27;;;;;;;4.60;1.40;;;37.20;36.50;;;;;;4609616;31;20052;-84
2022/07/06 16:23:32;;;;;;;3.28;1.70;;;37.00;38.30;;;;;;4632277;30;20356;-82
2022/07/06 16:26:19;;;;;;;2.97;1.40;;;37.80;39.20;;;;;;4603638;30;20083;-83
2022/07/06 16:29:06;;;;;;;2.58;1.55;;;36.50;39.10;;;;;;4632529;30;20062;-82
2022/07/06 16:34:13;;;;;;;2.55;1.75;;;35.00;38.70;;;;;;4961754;25;20082;-82
2022/07/06 16:43:40;;;;;;;4.10;1.77;;;34.60;39.20;;;;;;4600409;31;20484;-81
2022/07/06 16:51:43;;;;;;;4.57;1.90;;;33.90;41.80;;;;;;4672838;25;20155;-82
2022/07/06 16:54:15;;;;;;;3.05;1.70;;;33.90;44.10;;;;;;4667994;30;20038;-83
2022/07/06 16:59:24;;;;;;;4.88;1.92;;;34.00;41.00;;;;;;4672678;25;20093;-82
2022/07/06 17:01:52;;;;;;;2.75;1.60;;;34.00;42.90;;;;;;4653082;30;20550;-84
2022/07/06 17:04:30;;;;;;;3.05;1.90;;;33.60;42.80;;;;;;4652961;30;20065;-85
2022/07/06 17:06:56;;;;;;;3.13;1.80;;;33.00;42.30;;;;;;4668932;30;20058;-82
2022/07/06 17:09:22;;;;;;;3.35;1.90;;;32.90;40.70;;;;;;4668532;30;20406;-81
2022/07/06 17:11:48;;;;;;;4.18;1.80;;;32.60;41.10;;;;;;4668475;30;20328;-81
2022/07/06 17:14:27;;;;;;;3.03;1.58;;;32.10;41.90;;;;;;4652929;30;20090;-82
2022/07/06 17:23:19;;;;;;;2.83;1.50;;;31.00;42.40;;;;;;4714145;25;20140;-81
2022/07/06 17:26:16;;;;;;;4.68;2.30;;;30.90;44.30;;;;;;4668614;30;20168;-84
2022/07/06 17:28:44;;;;;;;7.25;3.17;;;30.90;43.90;;;;;;4668635;30;20060;-82
2022/07/06 17:31:13;;;;;;;8.63;3.15;;;29.80;45.20;;;;;;4652725;30;20034;-85
2022/07/06 17:33:39;;;;;;;7.03;2.80;;;29.20;44.80;;;;;;4652534;30;20060;-81
2022/07/06 17:36:05;;;;;;;4.65;2.38;;;29.00;44.70;;;;;;4652625;30;20046;-79
2022/07/06 17:38:33;;;;;;;3.92;1.77;;;28.60;45.70;;;;;;4668075;30;20404;-81
2022/07/06 17:43:58;;;;;;;4.38;1.75;;;28.10;46.70;;;;;;4668737;30;20128;-81
2022/07/06 17:52:35;;;;;;;3.97;1.90;;;27.40;46.50;;;;;;4726407;25;20515;-86
2022/07/06 18:03:18;;;;;;;4.68;1.88;;;26.60;48.70;;;;;;4664505;25;20391;-84
2022/07/06 18:05:53;;;;;;;4.78;2.20;;;26.50;49.80;;;;;;4649914;30;20049;-84
2022/07/06 18:08:28;;;;;;;5.68;2.42;;;26.10;49.40;;;;;;4666604;25;20129;-86
2022/07/06 18:11:02;;;;;;;5.13;2.30;;;26.00;49.50;;;;;;4667943;30;20077;-86
2022/07/06 18:17:04;;;;;;;5.68;2.05;;;24.40;49.30;;;;;;4743701;25;20499;-83
2022/07/06 18:26:03;;;;;;;;;;;;;;;;;;;;;
2022/07/06 18:29:15;;;;;;;4.93;2.47;;;25.00;52.90;;;;;;4667556;30;20034;-83
2022/07/06 18:31:46;;;;;;;4.40;1.98;;;26.20;54.50;;;;;;4667693;30;20316;-83
2022/07/06 18:34:56;;;;;;;5.00;2.08;;;24.80;53.50;;;;;;4667307;30;20531;-85
2022/07/06 18:37:25;;;;;;;4.22;2.05;;;24.30;52.90;;;;;;4651539;30;20034;-84
2022/07/06 18:39:51;;;;;;;5.00;2.17;;;24.60;54.30;;;;;;4667203;30;20108;-84
2022/07/06 18:42:16;;;;;;;5.35;1.98;;;24.30;54.90;;;;;;4651649;30;20042;-85
2022/07/06 18:47:42;;;;;;;3.53;1.75;;;23.60;55.70;;;;;;4667256;30;20093;-83
2022/07/06 18:50:24;;;;;;;5.10;2.00;;;24.00;56.20;;;;;;4667650;30;20026;-83
2022/07/06 18:59:15;;;;;;;3.15;1.88;;;24.40;57.30;;;;;;4685111;30;20044;-83
2022/07/06 19:02:24;;;;;;;4.57;2.42;;;23.10;58.20;;;;;;4684636;30;20124;-85
2022/07/06 19:05:09;;;;;;;4.60;2.20;;;22.80;59.60;;;;;;4683099;30;20111;-85
2022/07/06 19:07:42;;;;;;;3.45;2.00;;;22.70;59.60;;;;;;4735087;25;20106;-83
2022/07/06 19:23:09;;;;;;;5.80;2.65;;;22.00;61.60;;;;;;1133064;25;20326;-84
2022/07/06 19:34:34;;;;;;;5.60;2.60;;;21.80;63.30;;;;;;4873325;25;20066;-81
2022/07/06 19:37:03;;;;;;;5.40;2.50;;;21.80;63.40;;;;;;4670643;30;20057;-85
2022/07/06 19:39:28;;;;;;;8.50;2.58;;;21.60;64.70;;;;;;4654642;30;20121;-85
2022/07/06 19:44:42;;;;;;;10.32;2.88;;;;;;;;;;4684174;25;20375;-83
2022/07/06 19:47:08;;;;;;;5.95;2.63;;;21.30;64.60;;;;;;4654131;30;20034;-83
2022/07/06 19:53:12;;;;;;;11.10;3.22;;;22.50;67.20;;;;;;4632776;30;20190;-84
2022/07/06 19:55:38;;;;;;;8.32;3.03;;;;;;;;;;4668051;25;20428;-82
2022/07/06 19:58:04;;;;;;;6.70;2.88;;;;;;;;;;4669721;30;20034;-82
2022/07/06 20:00:30;;;;;;;7.50;2.70;;;20.70;67.90;;;;;;4669921;30;20526;-84
2022/07/06 20:03:11;;;;;;;5.72;2.75;;;20.60;68.80;;;;;;4654412;30;20044;-84
2022/07/06 20:05:36;;;;;;;9.10;2.70;;;20.40;69.10;;;;;;4659959;25;20038;-84
2022/07/06 20:08:25;;;;;;;10.18;3.60;;;20.40;70.40;;;;;;4653987;30;20050;-81
2022/07/06 20:10:50;;;;;;;7.07;2.75;;;20.30;71.20;;;;;;4668957;30;20042;-83
2022/07/06 20:13:16;;;;;;;7.85;2.72;;;20.20;71.40;;;;;;4669708;30;20034;-82
2022/07/06 20:15:42;;;;;;;8.15;2.90;;;20.00;72.20;;;;;;4668965;30;20050;-81
2022/07/06 20:18:07;;;;;;;8.40;2.72;;;19.90;74.20;;;;;;4669145;30;20049;-82
2022/07/06 20:20:33;;;;;;;4.50;2.50;;;19.80;74.10;;;;;;4669459;30;20310;-81
2022/07/06 20:23:02;;;;;;;8.18;2.42;;;19.80;73.60;;;;;;4653845;30;20034;-80
2022/07/06 20:25:28;;;;;;;7.03;2.47;;;19.70;73.90;;;;;;4653461;30;20046;-81
2022/07/06 20:27:54;;;;;;;8.82;3.17;;;19.80;74.60;;;;;;4652719;30;20531;-82
2022/07/06 20:30:20;;;;;;;4.65;2.15;;;19.70;75.30;;;;;;4669470;30;20059;-82
2022/07/06 20:32:46;;;;;;;6.68;3.22;;;19.60;75.60;;;;;;4653613;30;20032;-82
2022/07/06 20:35:11;;;;;;;8.07;2.65;;;19.60;76.40;;;;;;4669000;30;20315;-82
2022/07/06 20:37:37;;;;;;;5.70;2.53;;;19.50;77.90;;;;;;4672555;25;20057;-82
2022/07/06 20:40:04;;;;;;;8.48;2.53;;;19.40;79.80;;;;;;4684653;30;20073;-81
2022/07/06 20:42:30;;;;;;;4.80;2.65;;;19.20;81.40;;;;;;4685099;30;20038;-85
2022/07/06 20:44:56;;;;;;;6.10;2.30;;;19.20;82.50;;;;;;4686416;30;20176;-82
2022/07/06 20:47:24;;;;;;;3.80;2.00;;;19.20;83.30;;;;;;4685579;30;20107;-83
2022/07/06 20:49:50;;;;;;;5.22;2.47;;;19.10;83.80;;;;;;4685364;30;20231;-82
2022/07/06 20:52:16;;;;;;;6.50;2.53;;;19.00;84.70;;;;;;4685151;30;20621;-82
2022/07/06 20:54:42;;;;;;;13.73;2.90;;;18.80;87.70;;;;;;4683872;30;20055;-82
2022/07/06 20:57:08;;;;;;;8.98;2.30;;;18.80;89.00;;;;;;4685248;30;20030;-82
2022/07/06 20:59:36;;;;;;;8.52;2.55;;;18.70;88.90;;;;;;4685139;30;20441;-81
2022/07/06 21:02:04;;;;;;;7.57;2.50;;;18.70;90.60;;;;;;4685160;30;20032;-84
2022/07/06 21:04:30;;;;;;;8.88;2.55;;;18.70;90.30;;;;;;4669049;30;20132;-83
2022/07/06 21:06:56;;;;;;;7.50;2.45;;;18.70;90.80;;;;;;4684850;30;20346;-85
2022/07/06 21:09:22;;;;;;;7.88;2.75;;;18.70;91.30;;;;;;4685089;30;20327;-82
2022/07/06 21:12:00;;;;;;;13.98;2.85;;;18.60;91.70;;;;;;4684949;30;20147;-81
2022/07/06 21:17:03;;;;;;;4.80;2.45;;;18.40;91.80;;;;;;4687611;25;20615;-83
2022/07/06 21:19:28;;;;;;;4.78;2.60;;;18.50;92.10;;;;;;4684660;30;20046;-83
2022/07/06 21:21:54;;;;;;;3.88;2.28;;;18.30;93.10;;;;;;4669110;30;20128;-82
2022/07/06 21:24:20;;;;;;;5.05;2.40;;;18.20;92.80;;;;;;4669044;30;20026;-84
2022/07/06 21:26:51;;;;;;;4.63;2.30;;;18.20;93.40;;;;;;4685069;30;20228;-86
2022/07/06 21:29:16;;;;;;;5.70;2.30;;;18.10;93.80;;;;;;4683793;30;20082;-83
2022/07/06 21:32:00;;;;;;;5.55;2.83;;;18.00;94.00;;;;;;4664170;30;20042;-83
2022/07/06 21:34:29;;;;;;;5.13;2.90;;;17.80;94.30;;;;;;4650105;30;20540;-83
2022/07/06 21:37:13;;;;;;;5.60;2.55;;;17.70;94.40;;;;;;4960159;25;20058;-84
2022/07/06 21:39:39;;;;;;;4.45;2.33;;;17.20;95.80;;;;;;4637703;30;20523;-83
2022/07/06 21:42:11;;;;;;;10.18;3.78;;;17.60;95.20;;;;;;4651735;30;20049;-83
2022/07/06 21:47:08;;;;;;;4.90;2.33;;;17.60;94.80;;;;;;4649071;30;20144;-84
2022/07/06 21:49:33;;;;;;;6.28;2.33;;;14.90;94.30;;;;;;4634975;30;20515;-83
2022/07/06 21:52:08;;;;;;;5.78;2.65;;;17.60;95.00;;;;;;4650161;30;20605;-87
2022/07/06 21:54:46;;;;;;;4.38;2.15;;;17.50;95.20;;;;;;4650488;30;20291;-87
2022/07/06 21:59:51;;;;;;;7.30;3.25;;;17.40;95.40;;;;;;4710313;25;20069;-85
2022/07/06 22:02:20;;;;;;;5.18;2.80;;;17.80;95.70;;;;;;4667324;30;20038;-82
2022/07/06 22:04:46;;;;;;;6.00;2.67;;;17.40;95.70;;;;;;4651660;30;20406;-83
2022/07/06 22:07:11;;;;;;;6.75;2.80;;;17.40;96.00;;;;;;4667293;30;20077;-82
2022/07/06 22:09:37;;;;;;;7.07;2.78;;;17.30;96.20;;;;;;4665027;25;20559;-83
2022/07/06 22:12:18;;;;;;;8.18;2.67;;;17.20;96.30;;;;;;4667141;30;20471;-82
2022/07/06 22:14:44;;;;;;;6.55;3.28;;;17.20;96.70;;;;;;4667463;30;20123;-83
2022/07/06 22:17:10;;;;;;;5.15;2.80;;;17.20;97.00;;;;;;4654128;30;20129;-84
2022/07/06 22:19:35;;;;;;;5.68;2.63;;;17.20;96.60;;;;;;4675940;30;20312;-86
2022/07/06 22:22:01;;;;;;;8.85;2.85;;;17.20;96.70;;;;;;4675738;30;20129;-83
2022/07/06 22:24:27;;;;;;;5.55;2.95;;;17.20;97.00;;;;;;4680811;30;20045;-83
2022/07/06 22:27:02;;;;;;;6.88;2.83;;;17.20;97.00;;;;;;4668145;30;20327;-84
2022/07/06 22:29:28;;;;;;;9.70;3.38;;;17.20;96.90;;;;;;4667179;30;20034;-82
2022/07/06 22:31:54;;;;;;;6.68;3.08;;;17.20;96.80;;;;;;4667377;30;20030;-85
2022/07/06 22:34:19;;;;;;;11.25;3.15;;;17.10;96.50;;;;;;4667226;30;20535;-83
2022/07/06 22:36:46;;;;;;;5.03;2.85;;;;;;;;;;4666904;30;20104;-82
2022/07/06 22:39:11;;;;;;;6.82;3.08;;;17.10;96.40;;;;;;4667101;30;20096;-81
2022/07/06 22:41:46;;;;;;;6.53;2.92;;;17.20;96.60;;;;;;4667002;30;20026;-82
2022/07/06 22:44:21;;;;;;;5.25;2.80;;;17.30;97.00;;;;;;4667047;30;20133;-82
2022/07/06 22:46:59;;;;;;;4.80;2.63;;;17.10;96.60;;;;;;4651619;30;20038;-85
2022/07/06 22:49:48;;;;;;;7.38;3.17;;;17.10;97.10;;;;;;4667168;30;20253;-82
2022/07/06 22:52:17;;;;;;;13.88;2.83;;;18.40;97.80;;;;;;4654910;30;20034;-84
2022/07/06 22:54:43;;;;;;;5.70;2.80;;;17.00;97.40;;;;;;4654553;30;20048;-84
2022/07/06 22:57:18;;;;;;;5.72;2.70;;;17.00;97.30;;;;;;4654535;30;20022;-84
2022/07/06 22:59:44;;;;;;;7.72;3.22;;;17.00;97.40;;;;;;4670429;30;20745;-84
2022/07/06 23:02:09;;;;;;;5.97;2.83;;;17.00;97.10;;;;;;4654656;30;20034;-85
2022/07/06 23:04:35;;;;;;;6.72;2.70;;;;;;;;;;4654469;30;20053;-83
2022/07/06 23:07:04;;;;;;;5.57;3.00;;;17.00;96.80;;;;;;4654479;30;20385;-84
2022/07/06 23:09:30;;;;;;;6.45;3.20;;;16.90;97.00;;;;;;4669921;30;20042;-84
2022/07/06 23:11:56;;;;;;;5.28;2.80;;;16.90;97.30;;;;;;4654321;30;20124;-83
2022/07/06 23:14:21;;;;;;;6.93;2.58;;;17.00;97.40;;;;;;4669707;30;20038;-82
2022/07/06 23:16:47;;;;;;;10.02;2.97;;;17.00;97.90;;;;;;4654350;30;20026;-81
2022/07/06 23:19:13;;;;;;;5.82;2.72;;;16.90;97.40;;;;;;4654263;30;20064;-82
2022/07/06 23:21:39;;;;;;;6.30;3.15;;;16.80;97.50;;;;;;4669878;30;20030;-83
2022/07/06 23:24:04;;;;;;;6.68;3.47;;;16.80;97.70;;;;;;4668492;30;20042;-81
2022/07/06 23:26:30;;;;;;;6.18;3.33;;;16.80;97.70;;;;;;4654160;30;20034;-82
2022/07/06 23:28:56;;;;;;;5.78;2.58;;;16.70;98.00;;;;;;4669616;30;20096;-80
2022/07/06 23:31:22;;;;;;;6.60;2.47;;;16.70;98.00;;;;;;4668291;30;20643;-81
2022/07/06 23:33:47;;;;;;;6.05;3.03;;;16.70;97.80;;;;;;4669564;30;20034;-82
2022/07/06 23:36:13;;;;;;;5.45;2.80;;;16.70;97.70;;;;;;4669628;30;20430;-83
2022/07/06 23:38:42;;;;;;;5.75;2.90;;;16.60;98.00;;;;;;4669516;30;20515;-85
2022/07/06 23:41:08;;;;;;;7.45;2.70;;;17.00;98.00;;;;;;4669528;30;20597;-82
2022/07/06 23:43:34;;;;;;;6.88;2.80;;;16.60;98.20;;;;;;4669299;30;20109;-82
2022/07/06 23:46:00;;;;;;;8.50;3.45;;;16.70;98.10;;;;;;4653784;30;20042;-84
2022/07/06 23:48:25;;;;;;;4.45;2.55;;;16.70;98.10;;;;;;4669468;30;20104;-83
2022/07/06 23:50:51;;;;;;;6.95;3.08;;;16.60;97.90;;;;;;4667711;30;20038;-84
2022/07/06 23:53:17;;;;;;;6.38;3.13;;;16.60;97.90;;;;;;4669185;30;20034;-81
2022/07/06 23:55:43;;;;;;;9.35;2.95;;;16.50;98.40;;;;;;4653410;30;20408;-82
2022/07/06 23:58:08;;;;;;;5.50;2.83;;;16.50;98.30;;;;;;4653786;30;20095;-83
